Time;durP1;ratioP1;P1;durP2;ratioP2;P2;SDS_P1;SDS_P2;PMS_P1;PMS_P2;Temp;Humidity;BMP_temperature;BMP_pressure;BME280_temperature;BME280_humidity;BME280_pressure;Samples;Min_cycle;Max_cycle;Signal;HPM_P1;HPM_P2
2021/11/23 00:00:17;;;;;;;34.00;21.70;;;7.30;99.90;;;;;;6300365;28;20941;-66
2021/11/23 00:03:21;;;;;;;30.90;22.27;;;7.30;99.90;;;;;;6300808;28;20557;-65
2021/11/23 00:06:24;;;;;;;35.97;24.03;;;7.30;99.90;;;;;;6299583;28;20960;-65
2021/11/23 00:09:28;;;;;;;31.63;22.50;;;7.30;99.90;;;;;;6297372;28;20481;-65
2021/11/23 00:12:31;;;;;;;29.47;20.90;;;7.30;99.90;;;;;;6299582;28;20465;-64
2021/11/23 00:15:35;;;;;;;31.83;20.27;;;7.30;99.90;;;;;;6294291;28;20519;-64
2021/11/23 00:18:38;;;;;;;28.70;20.60;;;7.30;99.90;;;;;;6297914;28;20492;-66
2021/11/23 00:21:42;;;;;;;28.97;20.93;;;7.30;99.90;;;;;;6305828;28;20463;-65
2021/11/23 00:24:45;;;;;;;34.47;21.93;;;7.30;99.90;;;;;;6315555;28;21001;-65
2021/11/23 00:27:48;;;;;;;29.33;22.90;;;7.30;99.90;;;;;;6299809;28;20579;-65
2021/11/23 00:30:53;;;;;;;33.00;21.53;;;7.30;99.90;;;;;;6285352;28;20475;-66
2021/11/23 00:33:56;;;;;;;31.17;20.17;;;7.30;99.90;;;;;;6274119;28;20996;-65
2021/11/23 00:37:00;;;;;;;32.90;21.93;;;7.20;99.90;;;;;;6273223;28;20493;-65
2021/11/23 00:40:04;;;;;;;38.13;22.80;;;7.30;99.90;;;;;;6298421;28;20459;-64
2021/11/23 00:43:08;;;;;;;33.60;23.50;;;7.20;99.90;;;;;;6323255;28;20460;-65
2021/11/23 00:46:12;;;;;;;35.50;23.87;;;7.20;99.90;;;;;;6323030;28;20472;-64
2021/11/23 00:49:17;;;;;;;31.67;22.57;;;7.20;99.90;;;;;;6323369;28;20483;-64
2021/11/23 00:52:20;;;;;;;29.10;22.40;;;7.20;99.90;;;;;;6322909;28;20484;-68
2021/11/23 00:55:24;;;;;;;33.97;24.77;;;7.10;99.90;;;;;;6322101;28;20792;-68
2021/11/23 00:58:27;;;;;;;34.63;22.13;;;7.10;99.90;;;;;;6321879;28;20472;-68
2021/11/23 01:01:32;;;;;;;31.87;21.00;;;7.10;99.90;;;;;;6322843;28;20464;-67
2021/11/23 01:04:36;;;;;;;31.73;21.77;;;7.10;99.90;;;;;;6322818;28;21027;-68
2021/11/23 01:07:39;;;;;;;29.30;21.90;;;7.10;99.90;;;;;;6323131;28;20486;-67
2021/11/23 01:10:42;;;;;;;31.10;21.30;;;7.00;99.90;;;;;;6323000;28;20755;-68
2021/11/23 01:13:46;;;;;;;27.93;21.17;;;7.00;99.90;;;;;;6323570;28;20472;-67
2021/11/23 01:16:51;;;;;;;29.10;20.17;;;6.90;99.90;;;;;;6322590;28;20805;-67
2021/11/23 01:19:54;;;;;;;26.40;17.90;;;6.90;99.90;;;;;;6324010;28;20491;-67
2021/11/23 01:22:59;;;;;;;24.07;17.70;;;6.80;99.90;;;;;;6318293;28;20476;-67
2021/11/23 01:26:02;;;;;;;22.57;18.17;;;6.90;99.90;;;;;;6322141;28;20972;-67
2021/11/23 01:29:05;;;;;;;25.90;18.23;;;6.80;99.90;;;;;;6324198;28;20479;-67
2021/11/23 01:32:10;;;;;;;27.03;18.70;;;6.70;99.90;;;;;;6325644;28;21030;-66
2021/11/23 01:35:14;;;;;;;25.43;18.43;;;6.70;99.90;;;;;;6327722;28;20475;-66
2021/11/23 01:38:17;;;;;;;23.63;18.80;;;6.60;99.90;;;;;;6327042;28;20480;-66
2021/11/23 01:41:22;;;;;;;24.73;18.43;;;6.60;99.90;;;;;;6327135;28;20464;-66
2021/11/23 01:44:26;;;;;;;27.13;18.63;;;6.50;99.90;;;;;;6327324;28;20457;-67
2021/11/23 01:47:31;;;;;;;23.30;19.17;;;6.50;99.90;;;;;;6325390;28;20476;-66
2021/11/23 01:50:35;;;;;;;29.73;18.90;;;6.40;99.90;;;;;;6327880;28;20479;-67
2021/11/23 01:53:38;;;;;;;27.67;19.63;;;6.40;99.90;;;;;;6328182;28;20777;-66
2021/11/23 01:56:41;;;;;;;27.27;18.20;;;6.30;99.90;;;;;;6328531;28;20799;-66
2021/11/23 01:59:45;;;;;;;25.20;17.27;;;6.30;99.90;;;;;;6328202;28;20499;-66
2021/11/23 02:02:49;;;;;;;27.00;19.53;;;6.20;99.90;;;;;;6328213;28;20467;-66
2021/11/23 02:05:52;;;;;;;22.83;16.90;;;6.20;99.90;;;;;;6303184;28;20476;-66
2021/11/23 02:08:57;;;;;;;24.20;16.93;;;6.10;99.90;;;;;;6303327;28;20742;-66
2021/11/23 02:12:01;;;;;;;27.23;19.03;;;6.10;99.90;;;;;;6303222;28;20453;-66
2021/11/23 02:15:07;;;;;;;25.60;18.50;;;6.10;99.90;;;;;;6302757;28;20445;-66
2021/11/23 02:18:16;;;;;;;24.80;17.77;;;6.10;99.90;;;;;;6303006;28;20964;-66
2021/11/23 02:21:21;;;;;;;23.23;17.00;;;6.10;99.90;;;;;;6302877;28;20469;-66
2021/11/23 02:24:24;;;;;;;27.63;18.47;;;6.10;99.90;;;;;;6293016;28;20465;-66
2021/11/23 02:27:27;;;;;;;21.03;16.97;;;6.10;99.90;;;;;;6302990;28;20477;-66
2021/11/23 02:30:30;;;;;;;22.73;16.10;;;6.00;99.90;;;;;;6302768;28;20480;-67
2021/11/23 02:33:34;;;;;;;24.40;18.10;;;6.10;99.90;;;;;;6302850;28;20465;-66
2021/11/23 02:36:39;;;;;;;27.20;19.30;;;6.10;99.90;;;;;;6302200;28;20473;-66
2021/11/23 02:39:42;;;;;;;20.67;16.00;;;6.10;99.90;;;;;;6302104;28;20534;-66
2021/11/23 02:42:48;;;;;;;23.43;16.07;;;6.10;99.90;;;;;;6301651;28;20469;-66
2021/11/23 02:45:52;;;;;;;18.73;15.10;;;6.00;99.90;;;;;;6302181;28;20484;-66
2021/11/23 02:48:55;;;;;;;20.93;15.90;;;6.00;99.90;;;;;;6302766;28;20980;-66
2021/11/23 02:52:00;;;;;;;24.73;18.30;;;6.00;99.90;;;;;;6302692;28;20476;-66
2021/11/23 02:55:06;;;;;;;26.33;17.47;;;6.00;99.90;;;;;;6301612;28;20980;-66
2021/11/23 02:58:11;;;;;;;26.53;18.00;;;6.00;99.90;;;;;;6302089;28;20488;-67
2021/11/23 03:01:16;;;;;;;23.73;17.67;;;6.00;99.90;;;;;;6301941;28;21003;-67
2021/11/23 03:04:20;;;;;;;25.67;17.17;;;6.00;99.90;;;;;;6301712;28;20473;-66
2021/11/23 03:07:25;;;;;;;29.60;18.50;;;6.00;99.90;;;;;;6301053;28;20473;-66
2021/11/23 03:10:31;;;;;;;34.83;21.53;;;6.00;99.90;;;;;;6303146;28;20466;-66
2021/11/23 03:13:35;;;;;;;36.23;23.40;;;6.00;99.90;;;;;;6309890;28;20473;-66
2021/11/23 03:16:38;;;;;;;47.03;22.63;;;6.00;99.90;;;;;;6312574;28;20787;-66
2021/11/23 03:19:42;;;;;;;39.37;22.07;;;6.00;99.90;;;;;;6301972;28;20484;-66
2021/11/23 03:22:47;;;;;;;37.13;22.73;;;6.00;99.90;;;;;;6301802;28;20822;-66
2021/11/23 03:25:50;;;;;;;35.17;22.10;;;6.10;99.90;;;;;;6301122;28;20486;-66
2021/11/23 03:28:53;;;;;;;29.07;21.17;;;6.10;99.90;;;;;;6296792;28;20496;-67
2021/11/23 03:31:57;;;;;;;28.40;20.87;;;6.10;99.90;;;;;;6301163;28;20477;-67
2021/11/23 03:35:00;;;;;;;32.83;20.27;;;6.10;99.90;;;;;;6300752;28;20487;-67
2021/11/23 03:38:06;;;;;;;34.03;19.00;;;6.10;99.90;;;;;;6301205;28;20488;-67
2021/11/23 03:41:09;;;;;;;27.43;19.30;;;6.10;99.90;;;;;;6300951;28;20483;-66
2021/11/23 03:44:12;;;;;;;28.73;18.87;;;6.10;99.90;;;;;;6301772;28;20812;-66
2021/11/23 03:47:17;;;;;;;31.60;19.20;;;6.20;99.90;;;;;;6304169;28;20472;-66
2021/11/23 03:50:21;;;;;;;26.77;19.10;;;6.10;99.90;;;;;;6302179;28;20485;-66
2021/11/23 03:53:25;;;;;;;24.03;18.00;;;6.10;99.90;;;;;;6303833;28;20476;-66
2021/11/23 03:56:29;;;;;;;25.40;17.80;;;6.10;99.90;;;;;;6302372;28;20481;-66
2021/11/23 03:59:32;;;;;;;23.97;17.47;;;6.10;99.90;;;;;;6305254;28;20468;-66
2021/11/23 04:02:35;;;;;;;27.00;17.93;;;6.10;99.90;;;;;;6301273;28;20488;-66
2021/11/23 04:05:38;;;;;;;27.57;17.00;;;6.20;99.90;;;;;;6300745;28;20844;-66
2021/11/23 04:08:42;;;;;;;20.00;14.70;;;6.20;99.90;;;;;;6300110;28;20492;-66
2021/11/23 04:11:46;;;;;;;22.83;16.07;;;6.20;99.90;;;;;;6301663;28;20465;-66
2021/11/23 04:14:49;;;;;;;20.30;16.73;;;6.20;99.90;;;;;;6300049;28;20480;-67
2021/11/23 04:17:52;;;;;;;22.03;17.00;;;6.20;99.90;;;;;;6300268;28;20457;-66
2021/11/23 04:20:55;;;;;;;22.90;15.30;;;6.20;99.90;;;;;;6299712;28;20452;-66
2021/11/23 04:24:00;;;;;;;22.80;16.20;;;6.20;99.90;;;;;;6300126;28;20449;-66
2021/11/23 04:27:03;;;;;;;21.93;17.30;;;6.20;99.90;;;;;;6299392;28;20481;-67
2021/11/23 04:30:08;;;;;;;19.63;15.30;;;6.30;99.90;;;;;;6299540;28;20940;-67
2021/11/23 04:33:13;;;;;;;20.03;15.10;;;6.30;99.90;;;;;;6290940;28;20449;-67
2021/11/23 04:36:17;;;;;;;19.87;14.23;;;6.30;99.90;;;;;;6299739;28;20461;-67
2021/11/23 04:39:21;;;;;;;20.27;14.43;;;6.30;99.90;;;;;;6300401;28;20465;-67
2021/11/23 04:42:24;;;;;;;19.27;15.53;;;6.20;99.90;;;;;;6300601;28;20843;-67
2021/11/23 04:45:27;;;;;;;18.13;15.50;;;6.20;99.90;;;;;;6300320;28;20477;-66
2021/11/23 04:48:31;;;;;;;17.50;14.20;;;6.20;99.90;;;;;;6300289;28;20480;-66
2021/11/23 04:51:34;;;;;;;22.30;15.77;;;6.10;99.90;;;;;;6299917;28;20476;-66
2021/11/23 04:54:39;;;;;;;18.60;14.83;;;6.10;99.90;;;;;;6299908;28;20492;-66
2021/11/23 04:57:42;;;;;;;22.43;15.43;;;6.00;99.90;;;;;;6299928;28;20481;-66
2021/11/23 05:00:46;;;;;;;22.07;16.40;;;5.90;99.90;;;;;;6299659;28;20465;-67
2021/11/23 05:03:49;;;;;;;21.47;16.40;;;5.80;99.90;;;;;;6299977;28;20472;-66
2021/11/23 05:06:52;;;;;;;18.63;15.10;;;5.80;99.90;;;;;;6302911;28;20476;-66
2021/11/23 05:09:57;;;;;;;28.57;22.30;;;5.70;99.90;;;;;;6304627;28;20476;-66
2021/11/23 05:13:00;;;;;;;24.00;18.73;;;5.70;99.90;;;;;;6304418;28;20488;-67
2021/11/23 05:16:03;;;;;;;27.17;16.50;;;5.60;99.90;;;;;;6304778;28;21014;-66
2021/11/23 05:19:07;;;;;;;23.30;17.13;;;5.50;99.90;;;;;;6304143;28;20964;-67
2021/11/23 05:22:10;;;;;;;26.47;18.20;;;5.40;99.90;;;;;;6304289;28;20476;-67
2021/11/23 05:25:14;;;;;;;29.10;20.10;;;5.40;99.90;;;;;;6303940;28;20476;-67
2021/11/23 05:28:18;;;;;;;27.80;18.97;;;5.50;99.90;;;;;;6303943;28;20481;-67
2021/11/23 05:31:21;;;;;;;27.80;18.80;;;5.50;99.90;;;;;;6304395;28;20480;-67
2021/11/23 05:34:24;;;;;;;27.17;19.77;;;5.60;99.90;;;;;;6304048;28;20953;-67
2021/11/23 05:37:27;;;;;;;22.87;17.83;;;5.60;99.90;;;;;;6298847;28;20786;-67
2021/11/23 05:40:32;;;;;;;22.00;17.37;;;5.60;99.90;;;;;;6303462;28;20961;-67
2021/11/23 05:43:35;;;;;;;22.57;17.13;;;5.70;99.90;;;;;;6304021;28;20487;-67
2021/11/23 05:46:39;;;;;;;21.83;17.10;;;5.70;99.90;;;;;;6304234;28;20481;-67
2021/11/23 05:49:43;;;;;;;23.77;18.13;;;5.80;99.90;;;;;;6303623;28;20480;-67
2021/11/23 05:52:46;;;;;;;23.80;17.13;;;5.80;99.90;;;;;;6303337;28;20469;-67
2021/11/23 05:55:53;;;;;;;20.50;16.77;;;5.90;99.90;;;;;;6303466;28;20480;-67
2021/11/23 05:58:56;;;;;;;28.53;18.03;;;5.90;99.90;;;;;;6303113;28;21278;-67
2021/11/23 06:01:59;;;;;;;21.57;16.90;;;6.00;99.90;;;;;;6303453;28;20472;-67
2021/11/23 06:05:03;;;;;;;26.37;17.60;;;6.00;99.90;;;;;;6303728;28;20479;-67
2021/11/23 06:08:06;;;;;;;19.30;15.50;;;5.90;99.90;;;;;;6317983;28;20503;-67
2021/11/23 06:11:11;;;;;;;25.93;17.40;;;5.90;99.90;;;;;;6324889;28;20465;-67
2021/11/23 06:14:14;;;;;;;19.10;14.27;;;5.90;99.90;;;;;;6313301;28;20484;-67
2021/11/23 06:17:17;;;;;;;18.77;14.80;;;5.90;99.90;;;;;;6308373;28;20481;-67
2021/11/23 06:20:20;;;;;;;19.20;15.03;;;5.80;99.90;;;;;;6311353;28;20480;-67
2021/11/23 06:23:25;;;;;;;23.30;15.13;;;5.80;99.90;;;;;;6312372;28;20469;-67
2021/11/23 06:26:30;;;;;;;22.17;15.20;;;5.90;99.90;;;;;;6311834;28;20476;-66
2021/11/23 06:29:33;;;;;;;15.97;13.67;;;5.90;99.90;;;;;;6313117;28;20949;-67
2021/11/23 06:32:37;;;;;;;20.63;14.97;;;6.00;99.90;;;;;;6310504;28;20470;-67
2021/11/23 06:35:40;;;;;;;18.63;13.17;;;6.00;99.90;;;;;;6306549;28;20848;-67
2021/11/23 06:38:45;;;;;;;19.27;15.10;;;6.10;99.90;;;;;;6304089;28;20481;-67
2021/11/23 06:41:50;;;;;;;23.83;15.70;;;6.10;99.90;;;;;;6304766;28;20465;-67
2021/11/23 06:44:53;;;;;;;23.27;15.90;;;6.10;99.90;;;;;;6304978;28;20483;-67
2021/11/23 06:47:56;;;;;;;20.53;15.10;;;6.20;99.90;;;;;;6307237;28;20476;-67
2021/11/23 06:51:00;;;;;;;17.77;15.30;;;6.20;99.90;;;;;;6307198;28;20456;-68
2021/11/23 06:54:03;;;;;;;19.23;15.73;;;6.30;99.90;;;;;;6308194;28;20449;-67
2021/11/23 06:57:08;;;;;;;21.03;16.50;;;6.40;99.90;;;;;;6305026;28;20468;-67
2021/11/23 07:00:13;;;;;;;21.13;18.50;;;6.50;99.90;;;;;;6305028;28;20418;-67
2021/11/23 07:03:16;;;;;;;28.20;21.07;;;6.60;99.90;;;;;;6305010;28;20939;-67
2021/11/23 07:06:20;;;;;;;26.37;19.93;;;6.70;99.90;;;;;;6303874;28;20532;-67
2021/11/23 07:09:23;;;;;;;19.27;16.10;;;6.70;99.90;;;;;;6301538;28;20937;-67
2021/11/23 07:12:28;;;;;;;19.87;17.43;;;6.90;99.90;;;;;;6301151;28;20473;-67
2021/11/23 07:15:31;;;;;;;22.63;16.60;;;7.10;99.90;;;;;;6302236;28;20473;-67
2021/11/23 07:18:35;;;;;;;23.70;14.87;;;7.10;99.90;;;;;;6301056;28;20963;-67
2021/11/23 07:21:38;;;;;;;18.43;14.90;;;7.20;99.90;;;;;;6300984;28;20496;-67
2021/11/23 07:24:41;;;;;;;15.73;13.27;;;7.40;99.90;;;;;;6301305;28;20465;-67
2021/11/23 07:27:46;;;;;;;16.00;13.47;;;7.50;99.90;;;;;;6301658;28;20480;-66
2021/11/23 07:30:49;;;;;;;17.20;14.30;;;7.70;99.90;;;;;;6300271;28;20519;-67
2021/11/23 07:33:52;;;;;;;22.93;16.90;;;7.80;99.90;;;;;;6301807;28;20465;-67
2021/11/23 07:36:56;;;;;;;18.40;15.03;;;7.90;99.90;;;;;;6300829;28;20480;-67
2021/11/23 07:39:59;;;;;;;21.20;13.83;;;7.90;99.90;;;;;;6301449;28;20469;-67
2021/11/23 07:43:03;;;;;;;17.97;13.60;;;8.00;99.90;;;;;;6301405;28;20789;-67
2021/11/23 07:46:15;;;;;;;14.67;12.40;;;8.10;99.90;;;;;;6301874;28;20916;-68
2021/11/23 07:49:20;;;;;;;15.77;13.03;;;8.20;99.90;;;;;;6301654;28;20474;-67
2021/11/23 07:52:24;;;;;;;17.70;13.60;;;8.40;99.90;;;;;;6300786;28;20497;-66
2021/11/23 07:55:27;;;;;;;16.57;13.67;;;8.40;99.90;;;;;;6301162;28;20473;-66
2021/11/23 07:58:32;;;;;;;17.10;14.67;;;8.50;99.90;;;;;;6300730;28;20465;-66
2021/11/23 08:01:35;;;;;;;15.17;12.47;;;8.50;99.90;;;;;;6300843;28;20487;-67
2021/11/23 08:04:39;;;;;;;19.10;15.67;;;8.60;99.90;;;;;;6300552;28;20980;-67
2021/11/23 08:07:42;;;;;;;19.33;13.10;;;8.60;99.90;;;;;;6300343;28;20491;-67
2021/11/23 08:10:45;;;;;;;14.10;12.60;;;9.00;99.90;;;;;;6300690;28;20477;-67
2021/11/23 08:13:50;;;;;;;14.47;11.10;;;9.40;99.90;;;;;;6300569;28;20465;-67
2021/11/23 08:16:54;;;;;;;15.93;12.50;;;9.50;99.90;;;;;;6300166;28;20476;-67
2021/11/23 08:19:58;;;;;;;15.23;12.30;;;9.30;99.90;;;;;;6300771;28;20473;-67
2021/11/23 08:23:01;;;;;;;17.23;12.90;;;9.10;99.90;;;;;;6300027;28;20957;-67
2021/11/23 08:26:05;;;;;;;14.07;11.63;;;9.00;99.90;;;;;;6300023;28;20488;-67
2021/11/23 08:29:10;;;;;;;14.33;12.07;;;8.90;99.90;;;;;;6300043;28;20481;-68
2021/11/23 08:32:14;;;;;;;15.30;12.07;;;8.90;99.90;;;;;;6299754;28;20472;-67
2021/11/23 08:35:18;;;;;;;15.53;12.20;;;9.00;99.90;;;;;;6299373;28;21146;-68
2021/11/23 08:38:21;;;;;;;16.47;12.97;;;9.20;99.90;;;;;;6299601;28;20492;-68
2021/11/23 08:41:24;;;;;;;15.33;12.70;;;9.40;99.90;;;;;;6298678;28;20494;-68
2021/11/23 08:44:29;;;;;;;14.20;11.57;;;9.70;99.90;;;;;;6297310;28;20484;-66
2021/11/23 08:47:32;;;;;;;12.00;10.80;;;9.80;99.00;;;;;;6300100;28;20805;-68
2021/11/23 08:50:35;;;;;;;12.63;10.50;;;9.80;98.50;;;;;;6291299;28;20473;-67
2021/11/23 08:53:39;;;;;;;15.50;11.07;;;10.00;97.80;;;;;;6293721;28;20488;-68
2021/11/23 08:56:49;;;;;;;14.07;12.60;;;10.20;97.70;;;;;;6323175;28;20472;-67
2021/11/23 09:00:09;;;;;;;16.17;13.90;;;10.40;97.70;;;;;;6324216;28;20464;-67
2021/11/23 09:03:12;;;;;;;17.10;13.80;;;10.50;97.20;;;;;;6324061;28;20445;-67
2021/11/23 09:06:16;;;;;;;14.30;12.00;;;10.50;96.70;;;;;;6323883;28;20521;-68
2021/11/23 09:09:23;;;;;;;16.30;12.40;;;10.40;96.70;;;;;;6323959;28;20456;-67
2021/11/23 09:12:27;;;;;;;16.67;12.40;;;10.10;96.30;;;;;;6324303;28;20477;-67
2021/11/23 09:15:31;;;;;;;15.23;11.30;;;9.80;97.20;;;;;;6324389;28;20468;-67
2021/11/23 09:18:35;;;;;;;14.53;12.40;;;9.50;97.40;;;;;;6324105;28;20476;-67
2021/11/23 09:21:38;;;;;;;12.97;11.20;;;9.50;97.90;;;;;;6323730;28;20468;-67
2021/11/23 09:24:42;;;;;;;13.20;11.43;;;9.50;98.10;;;;;;6324668;28;20548;-67
2021/11/23 09:27:45;;;;;;;13.57;11.30;;;9.80;98.20;;;;;;6323885;28;20475;-67
2021/11/23 09:30:50;;;;;;;17.60;11.47;;;10.20;97.20;;;;;;6324076;28;20467;-67
2021/11/23 09:33:54;;;;;;;15.50;12.20;;;10.10;96.20;;;;;;6324405;28;20475;-68
2021/11/23 09:36:57;;;;;;;12.63;10.70;;;10.00;96.90;;;;;;6323695;28;20491;-68
2021/11/23 09:40:00;;;;;;;12.67;10.00;;;10.10;96.70;;;;;;6324037;28;20475;-67
2021/11/23 09:43:04;;;;;;;16.77;11.40;;;9.70;97.00;;;;;;6323672;28;20468;-68
2021/11/23 09:46:10;;;;;;;11.43;10.33;;;9.70;97.70;;;;;;6324542;28;20785;-68
2021/11/23 09:49:15;;;;;;;12.37;10.80;;;9.60;97.70;;;;;;6324305;28;20468;-68
2021/11/23 09:52:19;;;;;;;12.57;11.27;;;9.70;97.80;;;;;;6324457;28;20476;-68
2021/11/23 09:55:22;;;;;;;11.23;9.70;;;9.70;97.20;;;;;;6328432;28;20476;-68
2021/11/23 09:58:25;;;;;;;13.73;10.20;;;9.30;97.10;;;;;;6328226;28;20964;-68
2021/11/23 10:01:32;;;;;;;12.33;9.97;;;9.10;97.90;;;;;;6328198;28;20463;-68
2021/11/23 10:04:37;;;;;;;12.70;10.20;;;9.10;98.60;;;;;;6328301;28;21037;-69
2021/11/23 10:07:42;;;;;;;12.57;11.37;;;8.70;99.20;;;;;;6328473;28;20468;-68
2021/11/23 10:10:50;;;;;;;11.57;10.20;;;8.80;99.30;;;;;;6327888;28;20473;-68
2021/11/23 10:13:55;;;;;;;12.50;9.03;;;9.00;99.10;;;;;;6327950;28;20464;-68
2021/11/23 10:16:59;;;;;;;11.20;9.97;;;9.10;98.90;;;;;;6328280;28;20472;-68
2021/11/23 10:20:04;;;;;;;11.00;9.57;;;9.00;99.10;;;;;;6327344;28;20475;-68
2021/11/23 10:23:17;;;;;;;10.63;9.63;;;9.00;98.90;;;;;;6327778;28;20487;-68
2021/11/23 10:26:22;;;;;;;12.70;11.40;;;8.90;98.40;;;;;;6327264;28;20487;-68
2021/11/23 10:29:27;;;;;;;10.73;9.40;;;8.80;98.80;;;;;;6327706;28;20476;-68
2021/11/23 10:32:42;;;;;;;10.77;9.67;;;9.00;98.80;;;;;;6327725;28;20484;-68
2021/11/23 10:35:50;;;;;;;11.60;10.10;;;9.20;98.90;;;;;;6327302;28;20472;-68
2021/11/23 10:39:02;;;;;;;13.27;11.07;;;9.50;98.40;;;;;;6327089;28;20487;-68
2021/11/23 10:42:06;;;;;;;12.67;11.07;;;9.70;98.10;;;;;;6302214;28;20445;-68
2021/11/23 10:45:10;;;;;;;12.07;10.40;;;9.40;97.80;;;;;;6304259;28;20434;-67
2021/11/23 10:48:18;;;;;;;10.53;9.57;;;9.50;98.10;;;;;;6327119;28;20432;-68
2021/11/23 10:51:22;;;;;;;12.50;9.70;;;9.80;97.80;;;;;;6326572;28;20790;-68
2021/11/23 10:54:26;;;;;;;11.10;10.10;;;10.10;96.60;;;;;;6326281;28;20487;-68
2021/11/23 10:57:39;;;;;;;11.63;9.90;;;10.50;95.80;;;;;;6322469;28;20476;-69
2021/11/23 11:00:44;;;;;;;11.37;10.20;;;11.00;95.50;;;;;;6326593;28;20472;-68
2021/11/23 11:03:50;;;;;;;10.27;9.20;;;11.80;94.10;;;;;;6326662;28;20468;-68
2021/11/23 11:06:55;;;;;;;10.60;9.50;;;13.60;92.80;;;;;;6326699;28;20493;-68
2021/11/23 11:09:59;;;;;;;13.20;9.40;;;14.80;85.40;;;;;;6326654;28;20810;-69
2021/11/23 11:13:06;;;;;;;15.47;9.20;;;15.50;80.00;;;;;;6326833;28;20475;-69
2021/11/23 11:16:11;;;;;;;10.60;9.50;;;15.30;77.10;;;;;;6327093;28;20464;-68
2021/11/23 11:19:17;;;;;;;10.90;9.50;;;15.00;75.30;;;;;;6326910;28;20471;-68
2021/11/23 11:22:22;;;;;;;10.33;9.00;;;14.30;76.30;;;;;;6327102;28;20959;-68
2021/11/23 11:26:15;;;;;;;15.57;10.77;;;13.90;77.90;;;;;;6327435;28;20476;-67
2021/11/23 11:29:28;;;;;;;11.33;9.03;;;13.50;78.00;;;;;;6326092;28;20481;-68
2021/11/23 11:32:34;;;;;;;11.17;9.03;;;14.60;78.90;;;;;;6325970;28;20483;-68
2021/11/23 11:35:40;;;;;;;9.63;8.53;;;16.70;70.10;;;;;;6326062;28;20484;-69
2021/11/23 11:38:44;;;;;;;11.93;9.67;;;16.30;65.00;;;;;;6325939;28;20503;-69
2021/11/23 11:41:47;;;;;;;11.20;8.00;;;15.30;67.60;;;;;;6325236;28;20472;-69
2021/11/23 11:44:53;;;;;;;9.63;7.57;;;15.00;68.30;;;;;;6325852;28;20994;-68
2021/11/23 11:47:58;;;;;;;8.53;7.70;;;14.70;69.50;;;;;;6300452;28;20453;-69
2021/11/23 11:51:04;;;;;;;10.97;7.03;;;14.80;68.20;;;;;;6300159;28;20786;-68
2021/11/23 11:54:18;;;;;;;8.47;6.70;;;14.00;69.30;;;;;;6302305;28;20433;-68
2021/11/23 11:57:29;;;;;;;9.30;8.13;;;13.60;70.60;;;;;;6325439;28;20472;-67
2021/11/23 12:00:35;;;;;;;8.80;8.00;;;13.00;72.70;;;;;;6310993;28;21124;-68
2021/11/23 12:03:39;;;;;;;8.67;7.80;;;12.30;75.90;;;;;;6326035;28;20476;-67
2021/11/23 12:07:09;;;;;;;9.60;8.60;;;12.00;77.70;;;;;;6324819;28;20472;-68
2021/11/23 12:10:18;;;;;;;10.47;9.57;;;11.50;80.10;;;;;;6324876;28;20506;-68
2021/11/23 12:13:31;;;;;;;9.00;8.00;;;11.80;80.20;;;;;;6325211;28;20464;-67
2021/11/23 12:16:39;;;;;;;9.37;8.47;;;13.50;79.10;;;;;;6324604;28;20998;-67
2021/11/23 12:19:52;;;;;;;9.87;8.97;;;16.10;71.20;;;;;;6325383;28;20491;-67
2021/11/23 12:23:14;;;;;;;7.90;7.13;;;18.60;63.10;;;;;;6325194;28;20959;-66
2021/11/23 12:26:19;;;;;;;9.70;8.80;;;22.30;50.90;;;;;;6324668;28;20472;-67
2021/11/23 12:29:28;;;;;;;7.70;7.00;;;23.40;44.30;;;;;;6325040;28;20245;-68
2021/11/23 12:32:33;;;;;;;9.60;8.60;;;22.70;42.50;;;;;;6324701;28;20233;-68
2021/11/23 12:35:39;;;;;;;9.70;8.80;;;20.50;44.20;;;;;;6324921;28;20234;-69
2021/11/23 12:38:43;;;;;;;10.57;9.47;;;20.20;46.10;;;;;;6323819;28;20257;-68
2021/11/23 12:41:48;;;;;;;8.73;7.93;;;19.80;45.30;;;;;;6324737;28;20226;-68
2021/11/23 12:44:51;;;;;;;10.30;8.40;;;18.90;46.20;;;;;;6318750;28;20214;-67
2021/11/23 12:47:54;;;;;;;9.30;8.40;;;18.30;48.10;;;;;;6315390;28;20466;-67
2021/11/23 12:50:58;;;;;;;9.20;8.30;;;20.30;46.70;;;;;;6323503;27;20222;-68
2021/11/23 12:54:05;;;;;;;9.50;8.60;;;23.30;43.00;;;;;;6325499;28;20209;-68
2021/11/23 12:57:10;;;;;;;9.33;8.43;;;26.20;38.50;;;;;;6322772;28;20226;-69
2021/11/23 13:00:16;;;;;;;8.33;7.60;;;27.40;35.00;;;;;;6323495;28;20213;-68
2021/11/23 13:03:19;;;;;;;8.90;8.00;;;28.70;30.60;;;;;;6313722;28;20240;-67
2021/11/23 13:06:23;;;;;;;8.27;7.57;;;29.10;29.60;;;;;;6323305;28;20677;-67
2021/11/23 13:09:44;;;;;;;9.60;8.10;;;27.90;29.80;;;;;;6322454;28;20302;-68
2021/11/23 13:12:49;;;;;;;8.97;8.23;;;27.90;30.00;;;;;;6317015;28;20245;-69
2021/11/23 13:15:54;;;;;;;9.40;8.50;;;28.60;29.30;;;;;;6324770;28;20244;-68
2021/11/23 13:19:01;;;;;;;9.40;8.57;;;28.60;28.40;;;;;;6324457;28;20236;-68
2021/11/23 13:22:04;;;;;;;9.60;8.77;;;27.90;29.10;;;;;;6324578;28;20222;-68
2021/11/23 13:25:10;;;;;;;10.17;9.27;;;28.60;28.30;;;;;;6324153;28;20236;-68
2021/11/23 13:28:14;;;;;;;10.27;9.27;;;28.80;28.30;;;;;;6326851;28;20229;-69
2021/11/23 13:31:21;;;;;;;9.97;9.07;;;29.10;27.90;;;;;;6328670;28;20225;-68
2021/11/23 13:34:24;;;;;;;9.67;8.70;;;27.00;28.80;;;;;;6329076;28;20229;-68
2021/11/23 13:37:38;;;;;;;9.67;8.70;;;26.10;30.00;;;;;;6328387;28;20230;-68
2021/11/23 13:40:44;;;;;;;8.87;8.17;;;24.60;31.60;;;;;;6329787;28;20240;-68
2021/11/23 13:43:50;;;;;;;9.40;8.60;;;25.00;32.20;;;;;;6334478;28;20233;-68
2021/11/23 13:46:55;;;;;;;9.23;8.33;;;24.50;31.50;;;;;;6331296;28;20665;-68
2021/11/23 13:50:06;;;;;;;9.23;8.53;;;24.60;31.90;;;;;;6332351;28;20693;-67
2021/11/23 13:53:09;;;;;;;9.30;8.40;;;24.60;31.90;;;;;;6333278;28;20230;-68
2021/11/23 13:56:14;;;;;;;9.67;8.87;;;24.30;32.20;;;;;;6329103;28;20238;-67
2021/11/23 13:59:19;;;;;;;9.90;8.90;;;23.70;32.10;;;;;;6328625;28;20241;-65
2021/11/23 14:02:40;;;;;;;10.10;9.10;;;21.90;34.20;;;;;;6328894;28;20230;-66
2021/11/23 14:05:45;;;;;;;9.67;8.43;;;19.90;37.30;;;;;;6328308;28;20317;-66
2021/11/23 14:08:59;;;;;;;8.00;7.30;;;18.00;40.40;;;;;;6318879;28;20483;-68
2021/11/23 14:12:04;;;;;;;8.73;7.60;;;16.60;43.40;;;;;;6327996;28;20480;-68
2021/11/23 14:15:16;;;;;;;9.43;8.30;;;15.30;46.10;;;;;;6328478;28;20432;-68
2021/11/23 14:18:27;;;;;;;10.87;8.93;;;14.40;48.30;;;;;;6328376;28;20455;-68
2021/11/23 14:21:31;;;;;;;10.03;9.13;;;13.30;51.40;;;;;;6328104;28;20471;-68
2021/11/23 14:24:37;;;;;;;10.93;8.70;;;12.80;52.90;;;;;;6327993;28;20456;-68
2021/11/23 14:27:50;;;;;;;9.73;8.60;;;12.10;54.50;;;;;;6327807;28;20472;-68
2021/11/23 14:30:53;;;;;;;9.20;8.23;;;11.70;55.80;;;;;;6328564;28;20468;-67
2021/11/23 14:33:59;;;;;;;8.93;7.87;;;11.10;58.60;;;;;;6328271;28;20468;-68
2021/11/23 14:37:03;;;;;;;8.87;7.97;;;10.70;60.50;;;;;;6329472;28;20483;-67
2021/11/23 14:40:12;;;;;;;9.87;9.00;;;10.40;63.20;;;;;;6332057;28;20476;-66
2021/11/23 14:43:17;;;;;;;9.57;8.00;;;10.00;65.80;;;;;;6332685;28;20557;-66
2021/11/23 14:46:20;;;;;;;9.87;8.70;;;9.70;70.00;;;;;;6332855;28;20476;-67
2021/11/23 14:49:23;;;;;;;13.33;8.87;;;9.50;72.00;;;;;;6343728;28;20464;-69
2021/11/23 14:52:28;;;;;;;9.37;8.47;;;9.40;73.90;;;;;;6342096;28;20480;-70
2021/11/23 14:55:32;;;;;;;12.90;10.73;;;9.30;74.90;;;;;;6329776;28;20465;-68
2021/11/23 14:58:36;;;;;;;9.83;8.73;;;9.20;76.40;;;;;;6331687;28;20482;-69
2021/11/23 15:01:40;;;;;;;10.40;8.63;;;9.20;77.70;;;;;;6328710;28;20464;-68
2021/11/23 15:04:43;;;;;;;10.00;8.90;;;9.10;78.90;;;;;;6327084;28;20521;-69
2021/11/23 15:07:46;;;;;;;12.03;8.80;;;9.00;79.80;;;;;;6330035;28;20472;-69
2021/11/23 15:10:50;;;;;;;10.27;9.17;;;9.00;80.90;;;;;;6326921;28;20908;-69
2021/11/23 15:13:57;;;;;;;13.30;9.50;;;8.70;82.40;;;;;;6328750;28;20472;-68
2021/11/23 15:17:00;;;;;;;11.00;9.27;;;8.60;83.50;;;;;;6325853;28;20948;-69
2021/11/23 15:20:04;;;;;;;9.37;8.43;;;8.60;84.40;;;;;;6327547;28;21147;-68
2021/11/23 15:23:09;;;;;;;14.67;9.97;;;8.60;85.30;;;;;;6326024;28;20456;-66
2021/11/23 15:26:12;;;;;;;10.40;8.70;;;8.50;86.10;;;;;;6326426;28;20472;-68
2021/11/23 15:29:17;;;;;;;15.60;9.30;;;8.50;86.80;;;;;;6326432;28;20482;-68
2021/11/23 15:32:20;;;;;;;10.60;8.90;;;8.40;87.50;;;;;;6326037;28;20477;-72
2021/11/23 15:35:23;;;;;;;11.47;10.27;;;8.40;88.50;;;;;;6325994;28;20492;-67
2021/11/23 15:38:26;;;;;;;10.10;9.07;;;8.30;89.10;;;;;;6326810;28;20790;-70
2021/11/23 15:41:29;;;;;;;11.60;9.37;;;8.30;89.70;;;;;;6326935;28;20472;-69
2021/11/23 15:44:34;;;;;;;10.03;8.80;;;8.20;90.10;;;;;;6326996;28;20476;-66
2021/11/23 15:47:39;;;;;;;12.97;9.47;;;8.20;90.40;;;;;;6326042;28;20484;-67
2021/11/23 15:50:42;;;;;;;14.03;9.93;;;8.20;90.70;;;;;;6318257;28;20469;-67